• Join FlightAware (Why Join?)
  • Login
  • US Flag 
08:54PM EDT


 

Airport Tracker/Info


-or-


 

Live Flight TrackerFlight Track Log ✈ UAL33 ✈ 02-Apr-2014 ✈ RJAA / NRT - KLAX

Flight Track Log - Related Links

Times and Time Zones

All times are in EDT time to prevent confusion due to time zone crossing. See the UAL33 flight status page for this flight to view local times or setup timezone preferences in your user account.

Time Position Orientation Groundspeed Altitude Reporting Facility
EDT Latitude Longitude Course Direction KTS MPH feet Rate Location/Type
04:44AM 35.6648 140.4476 148° Southeast 229 264 4,000  Level FlightAware ADS-B (RJTK)
04:44AM 35.6461 140.4610 150° Southeast 248 285 4,700 2,280 Climbing FlightAware ADS-B (RJTK)
04:44AM 35.6242 140.4767 149° Southeast 259 298 5,600 1,920 Climbing FlightAware ADS-B (RJTK)
04:45AM 35.5818 140.5071 148° Southeast 270 311 6,700 1,200 Climbing FlightAware ADS-B (RJTK)
04:45AM 35.5623 140.5281 126° Southeast 276 318 6,800 60 Climbing FlightAware ADS-B (RJTK)
04:46AM 35.5482 140.5901 97° East 282 325 6,800  Level FlightAware ADS-B (RJTK)
04:46AM 35.5448 140.6207 98° East 283 326 6,800  Level FlightAware ADS-B (RJTK)
04:47AM 35.5380 140.6842 98° East 280 322 6,800  Level FlightAware ADS-B (RJTK)
04:47AM 35.5345 140.7158 98° East 280 322 6,800  Level FlightAware ADS-B (RJTK)
04:48AM 35.5309 140.7481 98° East 279 321 6,800  Level FlightAware ADS-B (RJTK)
04:48AM 35.5275 140.7792 98° East 280 322 6,800  Level FlightAware ADS-B (RJTK)
04:48AM 35.5243 140.8077 98° East 279 321 6,800 600 Level FlightAware ADS-B (RJTK)
04:49AM 35.5207 140.8404 98° East 281 323 7,200 1,860 Climbing FlightAware ADS-B (RJTK)
04:49AM 35.5171 140.8721 98° East 284 327 8,100 2,700 Climbing FlightAware ADS-B (RJTK)
04:49AM 35.5141 140.9057 90° East 289 333 9,000 2,040 Climbing FlightAware ADS-B (RJTK)
04:50AM 35.5278 141.0063 79° East 339 390 10,800 1,980 Climbing FlightAware ADS-B (RJTK)
04:51AM 35.5406 141.0877 79° East 363 418 12,300 2,520 Climbing FlightAware ADS-B (RJTK)
04:52AM 35.5527 141.1660 79° East 372 428 14,200 2,640 Climbing FlightAware ADS-B (RJTK)
04:52AM 35.5664 141.2527 80° East 389 448 15,800 2,220 Climbing FlightAware ADS-B (RJTK)
04:53AM 35.5804 141.3435 81° East 409 471 17,200 2,040 Climbing FlightAware ADS-B (RJTK)
04:54AM 35.5949 141.4368 79° East 425 489 18,600 2,100 Climbing FlightAware ADS-B (RJTK)
04:54AM 35.6087 141.5276 80° East 438 504 20,000 2,160 Climbing FlightAware ADS-B (RJTK)
04:55AM 35.6216 141.6131 80° East 448 516 21,200 1,920 Climbing FlightAware ADS-B (RJTK)
04:56AM 35.6471 141.7824 79° East 468 539 23,300 1,680 Climbing FlightAware ADS-B (RJTK)
04:57AM 35.6640 141.8933 81° East 486 559 24,200 1,440 Climbing FlightAware ADS-B (RJTK)
04:57AM 35.6792 141.9943 80° East 497 572 25,200 60 Climbing FlightAware ADS-B (RJTK)
05:00AM 35.8587 142.3343 57° Northeast  Level Estimated
05:01AM 35.8500 142.5222 90° East  Level FlightAware Approximate
05:02AM 35.8500 142.7054 90° East  Level FlightAware Approximate
05:03AM 35.8654 142.8874 83° East  Level FlightAware Approximate
05:04AM 35.8669 143.0705 90° East  Level FlightAware Approximate
05:05AM 35.8669 143.2538 90° East  Level FlightAware Approximate
05:06AM 35.8675 143.4370 87° East  Level FlightAware Approximate
05:07AM 35.8753 143.6199 87° East  Level FlightAware Approximate
05:08AM 35.8828 143.8030 87° East  Level FlightAware Approximate
05:09AM 35.9056 143.9830 77° East  Level FlightAware Approximate
05:10AM 35.9396 144.1615 77° East  Level FlightAware Approximate
05:11AM 35.9705 144.3409 78° East  Level FlightAware Approximate
05:12AM 35.9999 144.5208 79° East  Level FlightAware Approximate
05:13AM 36.0291 144.7008 79° East  Level FlightAware Approximate
05:14AM 36.0580 144.8809 79° East  Level FlightAware Approximate
05:15AM 36.0867 145.0611 79° East  Level FlightAware Approximate
05:16AM 36.1150 145.2415 79° East  Level FlightAware Approximate
05:17AM 36.1431 145.4220 79° East  Level FlightAware Approximate
05:18AM 36.1830 145.5986 73° East  Level FlightAware Approximate
05:19AM 36.2341 145.7709 68° East  Level FlightAware Approximate
05:20AM 36.2896 145.9413 68° East  Level FlightAware Approximate
05:21AM 36.3448 146.1120 68° East  Level FlightAware Approximate
05:22AM 36.3999 146.2829 68° East  Level FlightAware Approximate
05:23AM 36.4408 146.4599 74° East  Level FlightAware Approximate
05:24AM 36.4814 146.6371 74° East  Level FlightAware Approximate
05:25AM 36.5218 146.8145 74° East  Level FlightAware Approximate
05:26AM 36.5620 146.9921 74° East  Level FlightAware Approximate
05:27AM 36.6018 147.1699 74° East  Level FlightAware Approximate
05:28AM 36.6414 147.3479 74° East  Level FlightAware Approximate
05:29AM 36.6807 147.5260 75° East  Level FlightAware Approximate
05:30AM 36.7198 147.7043 75° East  Level FlightAware Approximate
05:31AM 36.7586 147.8828 75° East  Level FlightAware Approximate
05:32AM 36.7971 148.0615 75° East  Level FlightAware Approximate
05:33AM 36.8354 148.2404 75° East  Level FlightAware Approximate
05:34AM 36.8733 148.4194 75° East  Level FlightAware Approximate
05:35AM 36.8945 148.6024 84° East  Level FlightAware Approximate
05:36AM 36.9094 148.7868 84° East  Level FlightAware Approximate
05:37AM 36.9239 148.9713 84° East  Level FlightAware Approximate
05:38AM 36.9383 149.1558 84° East  Level FlightAware Approximate
05:39AM 36.9523 149.3404 85° East  Level FlightAware Approximate
05:40AM 36.9660 149.5251 85° East  Level FlightAware Approximate
05:41AM 36.9795 149.7102 85° East  Level FlightAware Approximate
05:42AM 36.9927 149.8953 85° East  Level FlightAware Approximate
05:43AM 37.0111 150.0797 80° East  Level FlightAware Approximate
05:44AM 37.0363 150.2629 80° East  Level FlightAware Approximate
05:45AM 37.0613 150.4463 80° East  Level FlightAware Approximate
05:46AM 37.0860 150.6298 80° East  Level FlightAware Approximate
05:47AM 37.1104 150.8135 80° East  Level FlightAware Approximate
05:48AM 37.1345 150.9972 81° East  Level FlightAware Approximate
05:49AM 37.1583 151.1811 81° East  Level FlightAware Approximate
05:50AM 37.1819 151.3651 81° East  Level FlightAware Approximate
05:51AM 37.2052 151.5492 81° East  Level FlightAware Approximate
05:52AM 37.2281 151.7334 81° East  Level FlightAware Approximate
05:53AM 37.2508 151.9177 81° East  Level FlightAware Approximate
05:54AM 37.2733 152.1021 81° East  Level FlightAware Approximate
05:55AM 37.2954 152.2867 81° East  Level FlightAware Approximate
05:56AM 37.3172 152.4713 81° East  Level FlightAware Approximate
05:57AM 37.3399 152.6558 81° East  Level FlightAware Approximate
05:58AM 37.3622 152.8405 81° East  Level FlightAware Approximate
05:59AM 37.3843 153.0253 81° East  Level FlightAware Approximate
06:00AM 37.4061 153.2101 82° East  Level FlightAware Approximate
06:01AM 37.4276 153.3951 82° East  Level FlightAware Approximate
06:02AM 37.4488 153.5802 82° East  Level FlightAware Approximate
06:03AM 37.4697 153.7654 82° East  Level FlightAware Approximate
06:04AM 37.4903 153.9507 82° East  Level FlightAware Approximate
06:05AM 37.5107 154.1361 82° East  Level FlightAware Approximate
06:06AM 37.5307 154.3216 82° East  Level FlightAware Approximate
06:07AM 37.5505 154.5072 82° East  Level FlightAware Approximate
06:08AM 37.5699 154.6929 82° East  Level FlightAware Approximate
06:09AM 37.5891 154.8787 83° East  Level FlightAware Approximate
06:10AM 37.6080 155.0646 83° East  Level FlightAware Approximate
06:11AM 37.6266 155.2505 83° East  Level FlightAware Approximate
06:12AM 37.6449 155.4366 83° East  Level FlightAware Approximate
06:13AM 37.6629 155.6228 83° East  Level FlightAware Approximate
06:14AM 37.6806 155.8090 83° East  Level FlightAware Approximate
06:15AM 37.6980 155.9954 83° East  Level FlightAware Approximate
06:16AM 37.7152 156.1818 83° East  Level FlightAware Approximate
06:17AM 37.7320 156.3683 83° East  Level FlightAware Approximate
06:18AM 37.7485 156.5549 84° East  Level FlightAware Approximate
06:19AM 37.7648 156.7416 84° East  Level FlightAware Approximate
06:20AM 37.7807 156.9283 84° East  Level FlightAware Approximate
06:21AM 37.7964 157.1152 84° East  Level FlightAware Approximate
06:22AM 37.8118 157.3021 84° East  Level FlightAware Approximate
06:23AM 37.8268 157.4891 84° East  Level FlightAware Approximate
06:24AM 37.8416 157.6762 84° East  Level FlightAware Approximate
06:25AM 37.8561 157.8633 84° East  Level FlightAware Approximate
06:26AM 37.8703 158.0505 84° East  Level FlightAware Approximate
06:27AM 37.8841 158.2378 85° East  Level FlightAware Approximate
06:28AM 37.8977 158.4252 85° East  Level FlightAware Approximate
06:29AM 37.9110 158.6126 85° East  Level FlightAware Approximate
06:30AM 37.9240 158.8001 85° East  Level FlightAware Approximate
06:31AM 37.9367 158.9877 85° East  Level FlightAware Approximate
06:32AM 37.9491 159.1753 85° East  Level FlightAware Approximate
06:33AM 37.9612 159.3623 85° East  Level FlightAware Approximate
06:34AM 37.9729 159.5493 85° East  Level FlightAware Approximate
06:35AM 37.9844 159.7365 85° East  Level FlightAware Approximate
06:36AM 37.9955 159.9236 86° East  Level FlightAware Approximate
06:37AM 38.0156 160.1094 80° East  Level FlightAware Approximate
06:38AM 38.0416 160.2943 80° East  Level FlightAware Approximate
06:39AM 38.0673 160.4793 80° East  Level FlightAware Approximate
06:40AM 38.0928 160.6644 80° East  Level FlightAware Approximate
06:41AM 38.1180 160.8497 80° East  Level FlightAware Approximate
06:42AM 38.1428 161.0351 80° East  Level FlightAware Approximate
06:43AM 38.1674 161.2206 80° East  Level FlightAware Approximate
06:44AM 38.1917 161.4063 80° East  Level FlightAware Approximate
06:45AM 38.2157 161.5920 81° East  Level FlightAware Approximate
06:46AM 38.2394 161.7779 81° East  Level FlightAware Approximate
06:47AM 38.2629 161.9639 81° East  Level FlightAware Approximate
06:48AM 38.2860 162.1501 81° East  Level FlightAware Approximate
06:49AM 38.3088 162.3363 81° East  Level FlightAware Approximate
06:50AM 38.3313 162.5227 81° East  Level FlightAware Approximate
06:51AM 38.3536 162.7092 81° East  Level FlightAware Approximate
06:52AM 38.3755 162.8958 81° East  Level FlightAware Approximate
06:53AM 38.3972 163.0825 82° East  Level FlightAware Approximate
06:54AM 38.4185 163.2693 82° East  Level FlightAware Approximate
06:55AM 38.4396 163.4562 82° East  Level FlightAware Approximate
06:56AM 38.4603 163.6432 82° East  Level FlightAware Approximate
06:57AM 38.4808 163.8304 82° East  Level FlightAware Approximate
06:58AM 38.5009 164.0176 82° East  Level FlightAware Approximate
06:59AM 38.5208 164.2050 82° East  Level FlightAware Approximate
07:00AM 38.5404 164.3924 82° East  Level FlightAware Approximate
07:01AM 38.5596 164.5800 82° East  Level FlightAware Approximate
07:02AM 38.5786 164.7676 83° East  Level FlightAware Approximate
07:03AM 38.5973 164.9554 83° East  Level FlightAware Approximate
07:04AM 38.6157 165.1432 83° East  Level FlightAware Approximate
07:05AM 38.6338 165.3312 83° East  Level FlightAware Approximate
07:06AM 38.6517 165.5192 83° East  Level FlightAware Approximate
07:06AM 38.8167 167.2000 84° East 569 655 37,000  Level Oakland Oceanic (ODAPS)
07:20AM 39.0000 170.0000 72° East 799 919 37,000  Level Oakland Oceanic (ODAPS)
07:21AM 39.0500 170.2000 72° East 583 671 37,000  Level Oakland Oceanic (ODAPS)
07:34AM 39.6500 172.7333 74° East 584 672 37,000  Level Oakland Oceanic (ODAPS)
07:47AM 40.2333 175.5667 76° East 587 676 37,000  Level Oakland Oceanic (ODAPS)
08:01AM 40.7667 178.5333 78° East 603 694 37,000  Level Oakland Oceanic (ODAPS)
08:08AM 41.0000 180.0000 72° East 595 685 37,000 240 Level Oakland Oceanic (ODAPS)
08:15AM 41.3667 -178.5000 73° East 578 665 41,000 180 Climbing Oakland Oceanic (ODAPS)
08:29AM 42.0000 -175.6167 75° East 578 665 41,000 -120 Level Oakland Oceanic (ODAPS)
08:43AM 42.5833 -172.5833 77° East 602 693 39,000 -120 Descending Oakland Oceanic (ODAPS)
08:55AM 43.0000 -170.0000 87° East 570 656 39,000  Level Oakland Oceanic (ODAPS)
08:57AM 43.0167 -169.5333 87° East 564 649 39,000  Level Oakland Oceanic (ODAPS)
09:11AM 43.1000 -166.4667 89° East 563 648 39,000  Level Oakland Oceanic (ODAPS)
09:25AM 43.1000 -163.4833 91° East 559 643 39,000  Level Oakland Oceanic (ODAPS)
09:38AM 43.0167 -160.5500 92° East 542 624 39,000  Level Oakland Oceanic (ODAPS)
09:41AM 43.0000 -160.0000 94° East 545 627 39,000  Level Oakland Oceanic (ODAPS)
09:52AM 42.8500 -157.7167 96° East 540 621 39,000  Level Oakland Oceanic (ODAPS)
10:06AM 42.6000 -154.9333 98° East 525 604 39,000  Level Oakland Oceanic (ODAPS)
10:20AM 42.3000 -152.2333 100° East 529 609 39,000  Level Oakland Oceanic (ODAPS)
10:32AM 42.0000 -150.0000 94° East 526 605 39,000  Level Oakland Oceanic (ODAPS)
10:34AM 41.9667 -149.5500 95° East 525 604 39,000 120 Level Oakland Oceanic (ODAPS)
10:48AM 41.7833 -146.8667 96° East 524 603 41,000 60 Climbing Oakland Oceanic (ODAPS)
11:02AM 41.5333 -144.1833 98° East 526 605 41,000  Level Oakland Oceanic (ODAPS)
11:15AM 41.2167 -141.5167 100° East 522 601 41,000  Level Oakland Oceanic (ODAPS)
11:23AM 41.0000 -140.0000 101° East 530 610 41,000  Level Oakland Oceanic (ODAPS)
11:29AM 40.8167 -138.8667 102° East 533 613 41,000  Level Oakland Oceanic (ODAPS)
11:43AM 40.3667 -136.2333 104° East 531 611 41,000  Level Oakland Oceanic (ODAPS)
11:57AM 39.8500 -133.6500 106° East 531 611 41,000  Level Oakland Oceanic (ODAPS)
12:11PM 39.2667 -131.1167 107° East 533 613 41,000  Level Oakland Oceanic (ODAPS)
12:17PM 39.0000 -130.0000 102° East 530 610 41,000  Level Oakland Oceanic (ODAPS)
12:25PM 38.7667 -128.6000 103° East 524 603 41,000  Level Oakland Oceanic (ODAPS)
12:31PM 38.5594 -127.4811 111° Southeast 529 609 41,000  Level Oakland Center
12:32PM 38.5352 -127.3544 104° East 524 603 41,000  Level FlightAware Transoceanic
12:32PM 38.5242 -127.2994 104° East 529 609 41,000  Level Oakland Center
12:33PM 38.5011 -127.1771 104° East 524 603 41,000  Level FlightAware Transoceanic
12:33PM 38.4828 -127.0822 104° East 529 609 41,000  Level Oakland Center
12:34PM 38.4667 -127.0000 111° Southeast 524 603 41,000  Level FlightAware Transoceanic
12:34PM 38.4386 -126.9047 108° East 528 608 41,000  Level Oakland Center
12:35PM 38.4158 -126.8324 111° Southeast 524 603 41,000  Level FlightAware Transoceanic
12:35PM 38.3900 -126.7294 109° East 528 608 41,000  Level Oakland Center
12:36PM 38.3646 -126.6650 111° Southeast 524 603 41,000 -120 Level FlightAware Transoceanic
12:36PM 38.3433 -126.5550 109° East 527 606 40,900 -120 Descending Oakland Center
12:37PM 38.2956 -126.3808 109° East 526 605 40,900  Level Oakland Center
12:38PM 38.2408 -126.1861 110° East 526 605 41,000  Climbing Oakland Center
12:39PM 38.1922 -126.0111 109° East 526 605 40,900  Descending Oakland Center
12:40PM 38.1428 -125.8364 110° East 526 605 41,000  Climbing Oakland Center
12:41PM 38.0942 -125.6617 109° East 526 605 40,900  Descending Oakland Center
12:42PM 38.0456 -125.4875 109° East 526 605 41,000  Climbing Oakland Center
12:43PM 37.9947 -125.3153 110° East 526 605 41,000  Level Oakland Center
12:44PM 37.9453 -125.1414 110° East 526 605 41,000 -60 Level Oakland Center
12:45PM 37.8961 -124.9692 110° East 526 605 40,900  Descending Oakland Center
12:51PM 37.5691 -123.9270 120° Southeast 523 602 41,000  Climbing FlightAware ADS-B
12:52PM 37.5211 -123.8227 120° Southeast 523 602 41,000  Level FlightAware ADS-B
12:53PM 37.4717 -123.7152 119° Southeast 525 604 41,000  Level FlightAware ADS-B
12:53PM 37.4210 -123.6055 120° Southeast 526 605 41,000  Level FlightAware ADS-B
12:54PM 37.3557 -123.4650 120° Southeast 527 606 41,000  Level FlightAware ADS-B
12:55PM 37.3011 -123.3480 120° Southeast 527 606 41,000  Level FlightAware ADS-B
12:55PM 37.3011 -123.3477 120° Southeast 527 606 41,000  Level FlightAware ADS-B
12:56PM 37.2500 -123.2382 120° Southeast 530 610 41,000  Level FlightAware ADS-B
12:57PM 37.1310 -122.9850 121° Southeast 535 616 41,000  Level FlightAware ADS-B
12:58PM 37.0917 -122.9020 121° Southeast 537 618 41,000  Level FlightAware ADS-B
12:58PM 37.1121 -122.9451 120° Southeast 537 618 41,000  Level FlightAware ADS-B
12:58PM 37.0497 -122.8130 121° Southeast 539 620 41,000  Level FlightAware ADS-B
12:58PM 37.0654 -122.8461 120° Southeast 538 619 41,000  Level FlightAware ADS-B
12:59PM 37.0094 -122.7280 121° Southeast 540 621 41,000  Level FlightAware ADS-B
12:59PM 37.0107 -122.7310 120° Southeast 540 621 41,000  Level FlightAware ADS-B
12:59PM 36.9698 -122.6450 121° Southeast 542 624 41,000  Level FlightAware ADS-B
01:00PM 36.9306 -122.5630 121° Southeast 543 625 41,000  Level FlightAware ADS-B
01:00PM 36.8862 -122.4700 121° Southeast 544 626 41,000  Level FlightAware ADS-B
01:01PM 36.8733 -122.4433 120° Southeast 544 626 41,000  Level FlightAware ADS-B
01:01PM 36.8211 -122.3350 121° Southeast 544 626 41,000  Level FlightAware ADS-B
01:01PM 36.8224 -122.3373 120° Southeast 545 627 41,000  Level FlightAware ADS-B
01:02PM 36.7791 -122.2470 121° Southeast 545 627 41,000  Level FlightAware ADS-B
01:02PM 36.7843 -122.2581 120° Southeast 545 627 41,000  Level FlightAware ADS-B
01:02PM 36.7387 -122.1640 121° Southeast 545 627 41,000  Level FlightAware ADS-B
01:04PM 36.6256 -121.9310 121° Southeast 547 629 41,000  Level FlightAware ADS-B
01:04PM 36.5606 -121.7970 121° Southeast 547 629 41,000  Level FlightAware ADS-B
01:05PM 36.5196 -121.7140 121° Southeast 544 626 41,000  Level FlightAware ADS-B
01:06PM 36.4646 -121.6020 121° Southeast 544 626 41,000  Level FlightAware ADS-B
01:07PM 36.3928 -121.4560 121° Southeast 540 621 41,000  Level FlightAware ADS-B
01:07PM 36.3528 -121.3750 121° Southeast 539 620 41,000  Level FlightAware ADS-B
01:08PM 36.3070 -121.2830 122° Southeast 537 618 41,000  Level FlightAware ADS-B
01:08PM 36.2670 -121.2020 122° Southeast 537 618 41,000  Level FlightAware ADS-B
01:09PM 36.2264 -121.1210 122° Southeast 536 617 41,000  Level FlightAware ADS-B
01:09PM 36.1850 -121.0380 122° Southeast 536 617 41,000  Level FlightAware ADS-B
01:12PM 36.0005 -120.6822 129° Southeast 535 616 41,000 -360 Level FlightAware ADS-B
01:16PM 35.4762 -120.0913 138° Southeast 533 613 38,700 -720 Descending FlightAware ADS-B
01:17PM 35.4219 -120.0317 138° Southeast 542 624 37,400 -2,160 Descending FlightAware ADS-B
01:18PM 35.3193 -119.9185 138° Southeast 545 627 35,700 -2,580 Descending FlightAware ADS-B
01:19PM 35.2467 -119.8388 138° Southeast 555 639 33,600 -3,000 Descending FlightAware ADS-B
01:19PM 35.1355 -119.7181 138° Southeast 555 639 30,900 -2,760 Descending FlightAware ADS-B
01:20PM 35.0801 -119.6579 138° Southeast 542 624 29,700 -2,340 Descending FlightAware ADS-B
01:21PM 34.9739 -119.5427 138° Southeast 521 600 27,400 -2,460 Descending FlightAware ADS-B
01:22PM 34.8294 -119.3866 138° Southeast 499 574 24,200 -2,520 Descending FlightAware ADS-B
01:23PM 34.7392 -119.2896 138° Southeast 424 488 21,900 -2,040 Descending FlightAware ADS-B
01:25PM 34.6120 -119.1531 139° Southeast 380 437 19,000 -1,800 Descending FlightAware ADS-B
01:26PM 34.5549 -119.0921 139° Southeast 371 427 17,800 -1,740 Descending FlightAware ADS-B
01:26PM 34.4832 -119.0159 139° Southeast 357 411 16,400 -1,800 Descending FlightAware ADS-B
01:27PM 34.4378 -118.9675 139° Southeast 354 407 15,300 -1,680 Descending FlightAware ADS-B
01:28PM 34.3797 -118.9070 144° Southeast 351 404 14,100 -1,680 Descending FlightAware ADS-B
01:28PM 34.3197 -118.8680 160° South 345 397 12,800 -1,140 Descending FlightAware ADS-B
01:29PM 34.2338 -118.8363 163° South 332 382 12,200 -900 Descending FlightAware ADS-B
01:30PM 34.1699 -118.8127 163° South 333 383 11,400 -1,380 Descending FlightAware ADS-B
01:31PM 34.1032 -118.7881 163° South 326 375 10,300 -1,320 Descending FlightAware ADS-B
01:31PM 34.0797 -118.7795 160° South 320 368 10,000 -540 Descending FlightAware ADS-B
01:32PM 34.0466 -118.7498 128° Southeast 311 358 9,900 -180 Descending FlightAware ADS-B
01:32PM 34.0381 -118.7308 112° Southeast 303 349 9,900  Level FlightAware ADS-B
01:32PM 34.0323 -118.6917 97° East 278 320 9,900  Level FlightAware ADS-B
01:33PM 34.0284 -118.6518 97° East 265 305 9,900 -480 Level FlightAware ADS-B
01:33PM 34.0237 -118.5999 96° East 255 293 9,400 -720 Descending FlightAware ADS-B
01:34PM 34.0203 -118.5638 96° East 239 275 9,200 -420 Descending FlightAware ADS-B
01:34PM 34.0181 -118.5395 97° East 229 264 9,100 -840 Descending FlightAware ADS-B
01:35PM 34.0133 -118.4890 97° East 220 253 8,400 -1,320 Descending FlightAware ADS-B
01:36PM 34.0176 -118.4108 81° East 213 245 6,800 -1,560 Descending FlightAware ADS-B
01:36PM 34.0210 -118.3826 82° East 209 241 6,100 -1,920 Descending FlightAware ADS-B
01:37PM 34.0228 -118.3684 81° East 207 238 5,500 -2,160 Descending FlightAware ADS-B
01:37PM 34.0271 -118.3339 81° East 204 235 4,600 -1,920 Descending FlightAware ADS-B
01:37PM 34.0298 -118.3151 80° East 202 232 4,100 -1,620 Descending FlightAware ADS-B
01:38PM 34.0331 -118.2922 80° East 195 224 3,600 -1,860 Descending FlightAware ADS-B
01:38PM 34.0358 -118.2745 80° East 189 217 2,800 -1,740 Descending FlightAware ADS-B
01:38PM 34.0383 -118.2483 103° East 194 223 2,300 -1,080 Descending FlightAware ADS-B
01:39PM 34.0251 -118.2320 162° South 186 214 2,100 -300 Descending FlightAware ADS-B
01:39PM 34.0020 -118.2282 191° South 186 214 2,100  Level FlightAware ADS-B
01:40PM 33.9761 -118.2508 230° Southwest 173 199 2,100  Level FlightAware ADS-B
01:40PM 33.9667 -118.2693 250° West 153 176 2,100 -180 Level FlightAware ADS-B
01:40PM 33.9641 -118.2847 263° West 155 178 2,000 -600 Descending FlightAware ADS-B
01:41PM 33.9625 -118.3000 263° West 147 169 1,700 -960 Descending FlightAware ADS-B
01:41PM 33.9602 -118.3221 263° West 134 154 1,300 -840 Descending FlightAware ADS-B
01:42PM 33.9591 -118.3333 263° West 132 152 1,100 -900 Descending FlightAware ADS-B
01:42PM 33.9572 -118.3509 263° West 130 150 700 -720 Descending FlightAware ADS-B
01:42PM 33.9548 -118.3753 264° West 124 143 500 -360 Descending FlightAware ADS-B
01:44PM 33.9519 -118.4181 264° West 133 153 100 -360 Descending Los Angeles Center